Time;durP1;ratioP1;P1;durP2;ratioP2;P2;SDS_P1;SDS_P2;PMS_P1;PMS_P2;Temp;Humidity;BMP_temperature;BMP_pressure;BME280_temperature;BME280_humidity;BME280_pressure;Samples;Min_cycle;Max_cycle;Signal;HPM_P1;HPM_P2
2021/11/08 00:00:28;;;;;;;6.38;2.30;;;7.60;85.30;;;;;;5015098;28;20497;-76
2021/11/08 00:02:57;;;;;;;4.00;2.88;;;7.70;85.40;;;;;;5014842;28;20032;-77
2021/11/08 00:05:24;;;;;;;4.32;2.50;;;7.70;85.80;;;;;;5014718;28;20428;-76
2021/11/08 00:07:55;;;;;;;4.72;2.83;;;7.70;85.70;;;;;;5014798;28;20474;-76
2021/11/08 00:10:28;;;;;;;3.55;2.70;;;7.70;85.70;;;;;;5014815;28;20026;-76
2021/11/08 00:12:54;;;;;;;3.65;2.72;;;7.70;85.30;;;;;;5014701;28;20467;-76
2021/11/08 00:15:25;;;;;;;4.22;2.75;;;7.60;85.10;;;;;;5014642;28;20031;-76
2021/11/08 00:18:04;;;;;;;6.60;2.50;;;7.70;85.20;;;;;;5015317;28;20102;-76
2021/11/08 00:20:41;;;;;;;6.50;2.50;;;7.60;85.00;;;;;;5003843;28;20060;-76
2021/11/08 00:23:09;;;;;;;4.53;2.47;;;7.60;84.90;;;;;;5036069;28;20052;-77
2021/11/08 00:25:36;;;;;;;6.63;2.55;;;7.60;84.70;;;;;;5036149;28;20022;-76
2021/11/08 00:28:01;;;;;;;3.15;2.13;;;7.60;84.80;;;;;;5018062;28;20056;-77
2021/11/08 00:30:30;;;;;;;3.90;2.35;;;7.60;84.70;;;;;;5034645;28;20048;-76
2021/11/08 00:33:15;;;;;;;6.47;2.67;;;7.70;84.90;;;;;;5035868;28;20531;-76
2021/11/08 00:35:42;;;;;;;4.55;3.30;;;7.60;85.00;;;;;;5018005;28;20038;-76
2021/11/08 00:38:08;;;;;;;5.65;2.47;;;7.70;85.00;;;;;;5017996;28;20427;-76
2021/11/08 00:40:35;;;;;;;5.85;2.80;;;7.60;84.80;;;;;;5034485;28;20478;-76
2021/11/08 00:43:01;;;;;;;5.68;2.58;;;7.60;84.50;;;;;;5001667;28;20037;-76
2021/11/08 00:45:26;;;;;;;3.15;2.20;;;7.60;84.80;;;;;;5034506;28;20017;-76
2021/11/08 00:47:52;;;;;;;2.70;2.28;;;7.50;85.00;;;;;;5017842;28;20056;-77
2021/11/08 00:50:19;;;;;;;8.48;3.25;;;7.60;86.00;;;;;;5035701;28;20030;-76
2021/11/08 00:52:45;;;;;;;4.10;2.65;;;7.60;85.20;;;;;;5017815;28;20029;-76
2021/11/08 00:55:11;;;;;;;5.78;2.78;;;7.60;85.20;;;;;;5017658;28;20025;-77
2021/11/08 00:57:38;;;;;;;5.07;3.08;;;7.60;85.20;;;;;;5017622;28;20393;-76
2021/11/08 01:00:09;;;;;;;6.07;2.85;;;7.50;85.30;;;;;;5034220;28;20022;-76
2021/11/08 01:02:35;;;;;;;5.95;2.92;;;7.50;85.40;;;;;;5017770;28;20032;-77
2021/11/08 01:05:01;;;;;;;5.57;3.10;;;7.50;85.30;;;;;;5034054;28;20022;-77
2021/11/08 01:07:28;;;;;;;4.80;2.95;;;7.50;85.40;;;;;;5033998;28;20573;-76
2021/11/08 01:09:54;;;;;;;4.45;2.90;;;7.60;85.30;;;;;;5017464;28;20486;-76
2021/11/08 01:12:22;;;;;;;4.07;2.95;;;7.60;85.20;;;;;;5017562;28;20079;-77
2021/11/08 01:14:48;;;;;;;4.25;2.50;;;7.60;85.10;;;;;;5033888;28;20022;-77
2021/11/08 01:17:14;;;;;;;5.57;2.40;;;7.60;85.00;;;;;;5033785;28;20398;-76
2021/11/08 01:19:40;;;;;;;4.63;3.00;;;7.60;85.10;;;;;;5033735;28;20057;-75
2021/11/08 01:22:14;;;;;;;2.72;2.35;;;7.60;85.00;;;;;;5035058;28;20421;-75
2021/11/08 01:24:40;;;;;;;3.95;2.42;;;7.60;85.00;;;;;;5017371;28;20501;-76
2021/11/08 01:27:07;;;;;;;4.80;2.50;;;7.60;84.70;;;;;;5017139;28;20029;-75
2021/11/08 01:29:34;;;;;;;3.08;2.33;;;7.60;84.60;;;;;;5016885;28;20375;-75
2021/11/08 01:32:04;;;;;;;3.20;2.28;;;7.60;84.70;;;;;;5017022;28;20021;-75
2021/11/08 01:34:30;;;;;;;5.30;2.63;;;7.50;84.60;;;;;;5034874;28;20017;-75
2021/11/08 01:36:59;;;;;;;6.15;2.58;;;7.50;84.70;;;;;;5016960;28;20175;-75
2021/11/08 01:39:35;;;;;;;4.15;2.25;;;7.60;85.50;;;;;;5017038;28;20059;-75
2021/11/08 01:42:05;;;;;;;6.20;2.63;;;7.50;84.80;;;;;;5016933;28;20382;-75
2021/11/08 01:44:31;;;;;;;5.43;2.50;;;7.50;84.70;;;;;;5034773;28;20053;-75
2021/11/08 01:46:59;;;;;;;5.93;2.83;;;7.50;84.60;;;;;;5033145;28;20021;-75
2021/11/08 01:49:29;;;;;;;4.45;2.70;;;7.50;84.60;;;;;;5017243;28;20133;-75
2021/11/08 01:51:57;;;;;;;4.95;2.50;;;7.50;84.70;;;;;;5048103;28;20024;-76
2021/11/08 01:54:23;;;;;;;6.03;2.38;;;7.50;84.80;;;;;;5024567;28;20037;-75
2021/11/08 01:56:51;;;;;;;3.60;2.42;;;7.50;84.80;;;;;;5016452;28;20046;-75
2021/11/08 01:59:17;;;;;;;3.88;2.72;;;7.50;84.80;;;;;;5034175;28;20072;-75
2021/11/08 02:01:42;;;;;;;6.15;2.53;;;7.50;84.70;;;;;;5000046;28;20129;-75
2021/11/08 02:04:09;;;;;;;3.13;1.95;;;7.60;84.50;;;;;;5032636;28;20049;-75
2021/11/08 02:06:35;;;;;;;4.68;2.45;;;7.50;84.40;;;;;;5034171;28;20029;-75
2021/11/08 02:09:01;;;;;;;4.43;2.50;;;7.50;84.40;;;;;;5032912;28;20027;-74
2021/11/08 02:11:26;;;;;;;7.63;2.50;;;7.50;84.50;;;;;;5016518;28;20104;-75
2021/11/08 02:13:53;;;;;;;3.50;2.55;;;7.40;84.70;;;;;;5032522;28;20440;-74
2021/11/08 02:16:20;;;;;;;4.53;2.50;;;7.40;84.60;;;;;;5032791;28;20033;-74
2021/11/08 02:18:46;;;;;;;7.72;2.53;;;7.40;84.40;;;;;;5015873;28;20026;-75
2021/11/08 02:21:13;;;;;;;5.07;2.58;;;7.40;83.80;;;;;;5016041;28;20042;-74
2021/11/08 02:23:40;;;;;;;4.85;2.00;;;7.30;83.30;;;;;;5016279;28;20033;-77
2021/11/08 02:26:13;;;;;;;5.00;2.15;;;7.20;82.90;;;;;;5033801;28;20026;-75
2021/11/08 02:28:40;;;;;;;4.13;2.00;;;7.10;83.00;;;;;;5016254;28;20466;-75
2021/11/08 02:31:06;;;;;;;7.80;2.42;;;7.10;82.90;;;;;;5016041;28;20030;-76
2021/11/08 02:33:32;;;;;;;7.13;2.22;;;7.10;82.70;;;;;;5000279;28;20159;-76
2021/11/08 02:35:59;;;;;;;6.90;2.10;;;7.00;82.10;;;;;;5015567;28;20102;-76
2021/11/08 02:38:27;;;;;;;7.68;2.08;;;7.00;81.90;;;;;;5016987;28;20428;-75
2021/11/08 02:40:55;;;;;;;8.55;2.47;;;6.90;81.90;;;;;;5034615;28;20085;-75
2021/11/08 02:43:22;;;;;;;12.48;3.38;;;6.80;82.10;;;;;;5038318;28;20025;-76
2021/11/08 02:48:49;;;;;;;9.02;3.03;;;6.60;82.50;;;;;;5020489;28;20036;-76
2021/11/08 02:51:22;;;;;;;8.02;2.50;;;6.50;82.40;;;;;;5017273;28;20545;-75
2021/11/08 02:53:59;;;;;;;9.43;2.42;;;6.40;82.70;;;;;;5037218;28;20014;-76
2021/11/08 02:56:25;;;;;;;6.35;2.80;;;6.40;83.10;;;;;;5016227;28;20030;-76
2021/11/08 02:58:50;;;;;;;10.27;3.20;;;6.40;83.00;;;;;;4999692;28;20029;-77
2021/11/08 03:01:20;;;;;;;8.57;3.22;;;6.40;83.10;;;;;;5015390;28;20087;-77
2021/11/08 03:03:51;;;;;;;7.40;2.47;;;6.40;83.30;;;;;;5032997;28;20080;-77
2021/11/08 03:06:22;;;;;;;6.38;2.40;;;6.40;83.70;;;;;;5033362;28;20528;-77
2021/11/08 03:08:50;;;;;;;6.35;2.47;;;6.50;84.20;;;;;;5015652;28;20569;-78
2021/11/08 03:11:16;;;;;;;4.32;2.42;;;6.50;84.50;;;;;;5015420;28;20108;-76
2021/11/08 03:13:51;;;;;;;5.63;2.08;;;6.40;84.40;;;;;;5032986;28;20095;-76
2021/11/08 03:18:44;;;;;;;7.47;2.40;;;6.40;84.20;;;;;;5032998;28;20029;-77
2021/11/08 03:21:16;;;;;;;5.10;2.22;;;6.50;84.20;;;;;;5015418;28;20125;-76
2021/11/08 03:23:44;;;;;;;5.57;1.92;;;6.40;83.90;;;;;;4999871;28;20029;-77
2021/11/08 03:28:54;;;;;;;4.00;2.20;;;6.40;83.90;;;;;;5033258;28;20432;-78
2021/11/08 03:31:20;;;;;;;6.97;2.45;;;6.40;83.90;;;;;;5015212;28;20025;-78
2021/11/08 03:33:48;;;;;;;3.55;1.75;;;6.30;83.90;;;;;;5015359;28;20486;-76
2021/11/08 03:36:15;;;;;;;4.38;2.25;;;6.40;84.00;;;;;;5015041;28;20038;-76
2021/11/08 03:38:41;;;;;;;5.75;2.15;;;6.30;84.10;;;;;;5015331;28;20160;-75
2021/11/08 03:41:08;;;;;;;9.27;2.25;;;6.30;84.20;;;;;;5015093;28;20490;-76
2021/11/08 03:43:35;;;;;;;5.05;2.30;;;6.40;84.20;;;;;;4998555;28;20041;-76
2021/11/08 03:46:01;;;;;;;4.32;2.30;;;6.40;84.20;;;;;;5014850;28;20474;-75
2021/11/08 03:48:27;;;;;;;6.25;2.53;;;6.40;84.20;;;;;;5015037;28;20032;-77
2021/11/08 03:50:54;;;;;;;6.13;2.00;;;6.40;84.20;;;;;;5014716;28;20108;-76
2021/11/08 03:53:21;;;;;;;8.45;2.67;;;6.40;84.40;;;;;;5034049;28;20512;-76
2021/11/08 03:55:47;;;;;;;7.13;2.70;;;6.40;84.20;;;;;;5036599;28;20095;-76
2021/11/08 03:58:14;;;;;;;8.15;2.85;;;6.40;84.20;;;;;;5018602;28;20061;-75
2021/11/08 04:00:41;;;;;;;6.07;3.05;;;6.40;84.20;;;;;;5018555;28;20018;-76
2021/11/08 04:03:08;;;;;;;6.60;2.92;;;6.40;84.30;;;;;;5002423;28;20037;-76
2021/11/08 04:05:36;;;;;;;5.60;2.90;;;6.30;84.20;;;;;;5018351;28;20029;-76
2021/11/08 04:08:13;;;;;;;4.82;2.55;;;6.40;84.20;;;;;;5018129;28;20498;-76
2021/11/08 04:10:41;;;;;;;5.88;2.67;;;6.30;84.30;;;;;;5018517;28;20417;-76
2021/11/08 04:13:08;;;;;;;7.55;2.55;;;6.30;84.40;;;;;;5018380;28;20022;-78
2021/11/08 04:15:40;;;;;;;6.70;3.13;;;6.40;84.50;;;;;;5018498;28;20032;-77
2021/11/08 04:18:10;;;;;;;8.40;2.70;;;6.40;84.50;;;;;;5018264;28;20033;-79
2021/11/08 04:20:39;;;;;;;7.25;2.47;;;6.40;84.20;;;;;;5035849;28;20050;-78
2021/11/08 04:23:04;;;;;;;6.50;2.03;;;6.30;84.10;;;;;;5018290;28;20560;-79
2021/11/08 04:25:30;;;;;;;6.22;2.40;;;6.30;83.60;;;;;;5018083;28;20115;-79
2021/11/08 04:27:57;;;;;;;8.73;2.47;;;6.20;83.40;;;;;;5018035;28;20442;-78
2021/11/08 04:30:25;;;;;;;7.05;3.03;;;6.30;83.60;;;;;;5018163;28;20033;-78
2021/11/08 04:38:41;;;;;;;7.22;2.05;;;6.10;84.00;;;;;;5035911;28;20593;-77
2021/11/08 04:41:08;;;;;;;6.50;2.60;;;6.10;84.20;;;;;;5031557;28;20036;-78
2021/11/08 04:48:59;;;;;;;7.82;2.47;;;6.10;84.30;;;;;;5035569;28;20025;-79
2021/11/08 04:54:03;;;;;;;7.35;3.00;;;6.10;84.10;;;;;;5035598;28;20139;-79
2021/11/08 05:31:50;;;;;;;10.00;4.38;;;5.50;84.60;;;;;;5034907;28;20017;-79
2021/11/08 05:34:16;;;;;;;7.87;3.63;;;5.50;84.40;;;;;;5016905;28;20026;-79
2021/11/08 05:36:43;;;;;;;10.57;5.68;;;5.40;84.40;;;;;;5016740;28;20069;-79
2021/11/08 05:39:11;;;;;;;16.73;5.97;;;5.40;84.70;;;;;;5016686;28;20109;-79
2021/11/08 05:41:39;;;;;;;14.60;6.22;;;5.30;84.80;;;;;;5016524;28;20037;-79
2021/11/08 05:44:06;;;;;;;14.18;6.05;;;5.30;84.90;;;;;;5016709;28;20017;-78
2021/11/08 05:46:33;;;;;;;13.02;5.72;;;5.30;84.90;;;;;;5016944;28;20041;-78
2021/11/08 05:49:00;;;;;;;11.25;5.70;;;5.30;84.90;;;;;;5016503;28;20064;-77
2021/11/08 05:51:27;;;;;;;13.10;6.35;;;5.30;84.70;;;;;;5016660;28;20025;-77
2021/11/08 05:53:53;;;;;;;17.70;7.93;;;5.30;84.40;;;;;;5016522;28;20026;-76
2021/11/08 06:50:32;;;;;;;13.80;5.53;;;4.60;84.00;;;;;;5043596;28;20033;-77
2021/11/08 06:53:04;;;;;;;15.32;5.80;;;4.60;83.90;;;;;;5023773;28;20033;-79
2021/11/08 06:55:31;;;;;;;14.68;6.00;;;4.60;84.00;;;;;;5020993;28;20026;-77
2021/11/08 06:58:06;;;;;;;20.40;9.30;;;4.50;84.00;;;;;;5016194;28;20033;-77
2021/11/08 07:00:32;;;;;;;18.23;7.88;;;4.60;83.90;;;;;;5018766;28;20048;-78
2021/11/08 07:02:58;;;;;;;16.52;8.40;;;4.60;83.90;;;;;;5038425;28;20033;-79
2021/11/08 07:05:24;;;;;;;20.63;9.38;;;4.60;83.50;;;;;;5020897;28;20018;-79
2021/11/08 07:07:50;;;;;;;23.15;10.00;;;4.60;83.90;;;;;;5019013;28;20029;-79
2021/11/08 07:10:20;;;;;;;21.20;9.95;;;4.60;84.10;;;;;;5017777;28;20025;-79
2021/11/08 07:12:46;;;;;;;18.45;10.00;;;4.60;84.40;;;;;;5017374;28;20103;-79
2021/11/08 07:15:13;;;;;;;17.17;9.82;;;4.60;84.50;;;;;;5034352;28;20036;-78
2021/11/08 07:17:39;;;;;;;23.92;10.48;;;4.60;84.90;;;;;;5016375;28;20029;-79
2021/11/08 07:20:05;;;;;;;21.20;8.77;;;4.50;85.70;;;;;;5012485;28;20096;-79
2021/11/08 07:22:31;;;;;;;21.60;10.95;;;4.50;85.80;;;;;;4995565;28;20394;-78
2021/11/08 07:24:57;;;;;;;18.75;9.68;;;4.60;86.40;;;;;;5012571;28;20026;-78
2021/11/08 07:27:23;;;;;;;22.48;10.05;;;4.60;86.20;;;;;;5012202;28;20029;-78
2021/11/08 07:29:49;;;;;;;22.42;9.02;;;4.60;86.00;;;;;;5011775;28;20018;-78
2021/11/08 07:32:14;;;;;;;21.60;9.90;;;4.70;86.10;;;;;;5013393;28;20383;-80
2021/11/08 07:34:40;;;;;;;17.50;8.88;;;4.70;85.80;;;;;;5011739;28;20108;-78
2021/11/08 07:37:07;;;;;;;16.83;8.52;;;4.80;85.90;;;;;;4995125;28;20426;-80
2021/11/08 07:39:32;;;;;;;16.17;9.25;;;4.80;85.50;;;;;;5011565;28;20037;-80
2021/11/08 07:42:00;;;;;;;16.55;9.15;;;4.90;85.60;;;;;;5011685;28;20426;-78
2021/11/08 07:44:27;;;;;;;25.77;8.75;;;5.00;85.10;;;;;;5011683;28;20389;-79
2021/11/08 07:46:52;;;;;;;14.50;8.00;;;5.00;84.90;;;;;;5013168;28;20045;-79
2021/11/08 07:49:19;;;;;;;17.08;8.10;;;5.00;84.90;;;;;;4995376;28;20030;-80
2021/11/08 07:51:47;;;;;;;25.17;9.27;;;5.20;84.60;;;;;;5012025;28;20026;-78
2021/11/08 07:54:12;;;;;;;19.38;8.43;;;5.20;83.80;;;;;;4995770;28;20026;-78
2021/11/08 07:56:38;;;;;;;15.82;8.50;;;5.30;83.60;;;;;;4995026;28;20045;-76
2021/11/08 07:59:04;;;;;;;17.50;8.50;;;5.30;83.50;;;;;;5011462;28;20026;-76
2021/11/08 08:01:29;;;;;;;14.98;8.20;;;5.40;83.50;;;;;;5011372;28;20109;-78
2021/11/08 08:03:55;;;;;;;16.85;7.60;;;5.50;83.10;;;;;;5011828;28;20385;-77
2021/11/08 08:06:20;;;;;;;15.40;7.85;;;5.60;82.80;;;;;;5011748;28;20061;-79
2021/11/08 08:08:49;;;;;;;11.48;7.22;;;5.70;82.60;;;;;;5012009;28;20467;-77
2021/11/08 08:11:17;;;;;;;14.07;6.85;;;5.80;81.80;;;;;;4995868;28;20026;-77
2021/11/08 08:13:43;;;;;;;13.57;6.47;;;6.00;81.20;;;;;;4995588;28;20058;-77
2021/11/08 08:16:12;;;;;;;16.08;6.13;;;6.10;80.70;;;;;;5011717;28;20053;-77
2021/11/08 08:18:38;;;;;;;16.73;6.40;;;6.20;80.10;;;;;;5011632;28;20116;-77
2021/11/08 08:21:06;;;;;;;9.13;5.32;;;6.20;79.50;;;;;;4998244;28;20045;-77
2021/11/08 08:23:32;;;;;;;11.88;4.82;;;6.30;79.10;;;;;;4998597;28;20034;-77
2021/11/08 08:25:58;;;;;;;7.85;4.32;;;6.30;78.50;;;;;;5014772;28;20045;-78
2021/11/08 08:28:24;;;;;;;16.10;5.28;;;6.40;78.40;;;;;;5014888;28;20029;-77
2021/11/08 08:30:50;;;;;;;13.02;5.22;;;6.40;78.30;;;;;;5031993;28;20037;-77
2021/11/08 08:33:16;;;;;;;12.93;4.97;;;6.50;78.20;;;;;;5014672;28;20560;-75
2021/11/08 08:35:43;;;;;;;20.38;5.70;;;6.70;77.70;;;;;;5031572;28;20045;-78
2021/11/08 08:38:14;;;;;;;19.65;5.65;;;6.70;77.80;;;;;;5013962;28;20141;-75
2021/11/08 08:40:40;;;;;;;11.75;4.95;;;6.90;77.40;;;;;;5017361;28;20032;-75
2021/11/08 08:43:07;;;;;;;15.30;5.07;;;7.00;76.40;;;;;;5017523;28;20101;-78
2021/11/08 08:45:37;;;;;;;13.15;5.05;;;7.10;76.20;;;;;;5017393;28;20116;-77
2021/11/08 08:48:04;;;;;;;13.57;4.75;;;7.40;75.60;;;;;;5017531;28;20039;-79
2021/11/08 08:50:29;;;;;;;13.07;4.00;;;7.50;74.80;;;;;;5017633;28;20025;-78
2021/11/08 08:52:55;;;;;;;12.10;4.55;;;7.70;74.40;;;;;;5017828;28;20032;-75
2021/11/08 08:55:21;;;;;;;15.82;4.88;;;8.00;73.80;;;;;;5017570;28;20029;-76
2021/11/08 08:57:47;;;;;;;9.85;3.95;;;8.30;72.50;;;;;;5019606;28;20037;-76
2021/11/08 09:00:18;;;;;;;12.20;4.35;;;8.40;70.60;;;;;;5035421;28;20025;-76
2021/11/08 09:02:43;;;;;;;12.82;3.78;;;8.60;70.20;;;;;;5017287;28;20072;-77
2021/11/08 09:05:10;;;;;;;8.30;3.70;;;8.90;69.80;;;;;;5017184;28;20064;-78
2021/11/08 09:07:39;;;;;;;12.35;3.63;;;9.10;69.20;;;;;;5017499;28;20457;-75
2021/11/08 09:10:05;;;;;;;19.25;4.85;;;9.30;67.90;;;;;;5016552;28;20025;-76
2021/11/08 09:12:31;;;;;;;9.40;3.80;;;9.40;67.50;;;;;;5017247;28;20394;-76
2021/11/08 09:14:57;;;;;;;10.88;3.35;;;9.60;66.50;;;;;;5017088;28;20029;-76
2021/11/08 09:17:23;;;;;;;14.23;3.42;;;9.90;65.80;;;;;;5017104;28;20038;-76
2021/11/08 09:19:48;;;;;;;16.52;3.92;;;9.80;64.00;;;;;;5016987;28;20556;-75
2021/11/08 09:22:14;;;;;;;14.82;3.95;;;10.00;64.10;;;;;;5033566;28;20034;-78
2021/11/08 09:24:41;;;;;;;9.48;2.90;;;10.20;62.90;;;;;;5033429;28;20149;-77
2021/11/08 09:27:07;;;;;;;9.98;3.03;;;10.30;62.20;;;;;;5017306;28;20034;-77
2021/11/08 09:29:32;;;;;;;10.98;2.88;;;10.50;61.10;;;;;;5017000;28;20061;-78
2021/11/08 09:31:58;;;;;;;10.52;3.03;;;10.50;59.90;;;;;;5033165;28;20032;-78
2021/11/08 09:34:24;;;;;;;18.55;2.83;;;10.80;59.60;;;;;;5000587;28;20022;-77
2021/11/08 09:36:53;;;;;;;13.18;3.45;;;11.00;57.70;;;;;;5034694;28;20438;-79
2021/11/08 09:39:28;;;;;;;13.18;2.83;;;11.10;56.80;;;;;;5034925;28;20021;-77
2021/11/08 09:42:02;;;;;;;15.15;3.38;;;11.30;57.20;;;;;;5016796;28;20121;-79
2021/11/08 09:44:28;;;;;;;17.05;3.05;;;11.30;55.10;;;;;;5033344;28;20028;-79
2021/11/08 09:46:56;;;;;;;7.57;2.35;;;11.50;54.90;;;;;;5033524;28;20032;-79
2021/11/08 09:49:22;;;;;;;16.05;3.08;;;11.70;53.40;;;;;;5016734;28;20026;-78
2021/11/08 09:51:49;;;;;;;11.07;3.08;;;12.10;53.50;;;;;;5033407;28;20032;-79
2021/11/08 09:54:18;;;;;;;15.02;2.50;;;12.50;52.50;;;;;;5016636;28;20041;-80
2021/11/08 09:56:45;;;;;;;12.48;2.58;;;12.60;48.80;;;;;;5016867;28;20109;-80
2021/11/08 09:59:15;;;;;;;10.18;2.75;;;12.60;49.30;;;;;;5017105;28;20160;-79
2021/11/08 10:01:43;;;;;;;11.63;3.25;;;12.80;48.30;;;;;;5016451;28;20029;-79
2021/11/08 10:04:10;;;;;;;10.75;2.50;;;12.80;48.30;;;;;;5016896;28;20391;-80
2021/11/08 10:06:37;;;;;;;11.88;2.78;;;12.90;47.90;;;;;;5016697;28;20506;-80
2021/11/08 10:09:08;;;;;;;14.68;3.40;;;13.00;47.40;;;;;;5016486;28;20029;-79
2021/11/08 10:11:37;;;;;;;11.98;3.63;;;13.30;47.30;;;;;;5016911;28;20029;-79
2021/11/08 10:14:04;;;;;;;10.73;3.28;;;13.50;48.40;;;;;;5016556;28;20141;-80
2021/11/08 10:16:33;;;;;;;11.13;3.42;;;13.60;48.80;;;;;;5016335;28;20045;-78
2021/11/08 10:19:02;;;;;;;12.05;3.40;;;13.40;49.70;;;;;;5016441;28;20548;-80
2021/11/08 10:21:35;;;;;;;15.13;3.42;;;13.60;50.10;;;;;;5016554;28;20033;-80
2021/11/08 10:24:07;;;;;;;13.15;3.45;;;13.90;50.00;;;;;;5034448;28;20021;-80
2021/11/08 10:26:36;;;;;;;14.25;3.70;;;14.20;48.80;;;;;;5034242;28;20500;-79
2021/11/08 10:29:11;;;;;;;12.75;3.45;;;13.90;48.50;;;;;;5034355;28;20033;-78
2021/11/08 10:31:47;;;;;;;6.85;3.33;;;13.40;49.40;;;;;;5034089;28;20105;-78
2021/11/08 10:34:14;;;;;;;11.40;3.60;;;13.00;51.00;;;;;;5033685;28;20171;-77
2021/11/08 10:36:40;;;;;;;12.57;3.28;;;12.70;52.20;;;;;;5033440;28;20122;-80
2021/11/08 10:39:09;;;;;;;11.00;3.90;;;12.60;52.80;;;;;;5033392;28;20026;-76
2021/11/08 10:41:39;;;;;;;12.95;3.60;;;12.80;52.70;;;;;;5033477;28;20022;-76
2021/11/08 10:44:17;;;;;;;20.83;4.55;;;13.30;52.40;;;;;;5032169;28;20074;-78
2021/11/08 10:46:47;;;;;;;17.50;4.32;;;13.80;51.20;;;;;;5032135;28;20554;-77
2021/11/08 10:49:21;;;;;;;11.10;3.90;;;14.30;49.40;;;;;;5033310;28;20029;-79
2021/11/08 10:51:56;;;;;;;11.05;4.22;;;14.70;46.90;;;;;;5032152;28;20112;-77
2021/11/08 10:54:37;;;;;;;19.23;4.63;;;14.70;46.50;;;;;;5015697;28;20726;-76
2021/11/08 10:57:07;;;;;;;14.82;5.05;;;14.60;46.20;;;;;;5033431;28;20049;-75
2021/11/08 10:59:37;;;;;;;14.55;5.05;;;14.40;46.70;;;;;;5015902;28;20030;-75
2021/11/08 11:02:06;;;;;;;16.30;5.97;;;14.20;47.70;;;;;;5015094;28;20029;-77
2021/11/08 11:04:43;;;;;;;16.60;4.45;;;13.90;48.90;;;;;;5015848;28;20486;-77
2021/11/08 11:07:35;;;;;;;15.23;5.13;;;13.50;49.10;;;;;;5015552;28;20033;-76
2021/11/08 11:10:11;;;;;;;14.50;4.25;;;13.10;50.60;;;;;;5012227;28;20117;-78
2021/11/08 11:12:40;;;;;;;19.48;5.97;;;12.60;51.40;;;;;;5013069;28;20431;-81
2021/11/08 11:15:12;;;;;;;22.10;6.95;;;12.20;53.00;;;;;;5015235;28;20021;-76
2021/11/08 11:17:55;;;;;;;18.42;7.00;;;11.90;54.60;;;;;;5015320;28;20038;-76
2021/11/08 11:20:24;;;;;;;14.45;5.72;;;11.60;55.80;;;;;;5033271;28;20133;-75
2021/11/08 11:23:05;;;;;;;18.48;6.45;;;11.40;57.10;;;;;;5033122;28;20033;-75
2021/11/08 11:25:43;;;;;;;22.50;6.90;;;11.20;58.30;;;;;;5033779;28;20034;-77
2021/11/08 11:28:13;;;;;;;17.50;5.50;;;11.00;60.30;;;;;;5033184;28;20021;-77
2021/11/08 11:30:42;;;;;;;12.82;5.45;;;10.90;60.50;;;;;;5032922;28;20043;-75
2021/11/08 11:33:12;;;;;;;14.05;4.63;;;10.70;63.00;;;;;;5031269;28;20025;-80
2021/11/08 11:35:50;;;;;;;13.85;4.88;;;10.60;62.80;;;;;;5031242;28;20375;-76
2021/11/08 11:38:29;;;;;;;12.80;4.50;;;10.40;63.60;;;;;;5032474;28;20033;-79
2021/11/08 11:41:16;;;;;;;12.55;4.00;;;10.30;64.60;;;;;;5014790;28;20026;-79
2021/11/08 11:43:53;;;;;;;11.98;4.32;;;10.10;65.10;;;;;;5032640;28;20021;-76
2021/11/08 11:46:22;;;;;;;10.57;3.80;;;10.10;65.60;;;;;;5014378;28;20375;-79
2021/11/08 11:48:49;;;;;;;11.18;4.07;;;10.00;65.80;;;;;;5014521;28;20101;-77
2021/11/08 11:51:22;;;;;;;12.75;4.28;;;10.10;66.60;;;;;;5013568;28;20037;-76
2021/11/08 11:53:48;;;;;;;13.35;4.78;;;10.10;66.50;;;;;;5016056;28;20449;-76
2021/11/08 11:56:16;;;;;;;15.98;7.22;;;10.20;66.40;;;;;;5033270;28;20112;-77
2021/11/08 11:58:48;;;;;;;15.85;4.40;;;10.00;66.50;;;;;;5030775;28;20038;-78
2021/11/08 12:01:16;;;;;;;14.35;4.63;;;9.80;67.10;;;;;;5033062;28;20029;-77
2021/11/08 12:03:43;;;;;;;19.02;4.68;;;9.90;67.40;;;;;;5014772;28;20482;-75
2021/11/08 12:06:17;;;;;;;15.02;3.70;;;9.90;67.20;;;;;;5031929;28;20033;-76
2021/11/08 12:08:47;;;;;;;10.50;3.65;;;9.90;67.00;;;;;;5014636;28;20033;-78
2021/11/08 12:11:14;;;;;;;12.88;3.72;;;10.00;66.70;;;;;;5015073;28;20037;-76
2021/11/08 12:13:53;;;;;;;12.82;4.13;;;10.00;66.30;;;;;;5018328;28;20492;-78
2021/11/08 12:16:21;;;;;;;14.43;3.72;;;10.10;66.30;;;;;;5021619;28;20461;-78
2021/11/08 12:18:48;;;;;;;14.63;3.47;;;10.10;66.00;;;;;;5036771;28;20002;-78
2021/11/08 12:21:35;;;;;;;8.07;2.53;;;10.20;65.70;;;;;;5042248;28;20041;-76
2021/11/08 12:24:13;;;;;;;13.35;3.22;;;10.20;63.90;;;;;;5036626;28;20018;-79
2021/11/08 12:26:40;;;;;;;9.80;2.92;;;10.20;63.10;;;;;;5017802;28;20057;-79
2021/11/08 12:29:13;;;;;;;10.52;2.80;;;10.30;62.80;;;;;;5017868;28;20030;-78
2021/11/08 12:31:39;;;;;;;16.77;3.42;;;10.30;62.70;;;;;;5017689;28;20021;-80
2021/11/08 12:34:13;;;;;;;15.02;3.67;;;10.20;62.60;;;;;;5017725;28;20022;-79
2021/11/08 12:36:40;;;;;;;10.88;3.25;;;10.20;62.80;;;;;;5017920;28;20029;-79
2021/11/08 12:39:11;;;;;;;15.45;3.50;;;10.10;62.80;;;;;;5017804;28;20378;-77
2021/11/08 12:41:50;;;;;;;16.30;3.63;;;9.80;63.60;;;;;;5035518;28;20385;-79
2021/11/08 12:44:19;;;;;;;13.35;3.30;;;9.70;64.20;;;;;;5017084;28;20033;-79
2021/11/08 12:46:51;;;;;;;15.77;3.40;;;9.50;65.50;;;;;;5017745;28;20053;-78
2021/11/08 12:49:28;;;;;;;13.98;3.33;;;9.40;65.60;;;;;;5017671;28;20386;-79
2021/11/08 12:52:06;;;;;;;16.45;3.97;;;9.40;65.80;;;;;;5018536;28;20108;-78
2021/11/08 12:55:02;;;;;;;11.70;2.97;;;9.50;66.10;;;;;;5034330;28;20025;-78
2021/11/08 12:57:29;;;;;;;13.80;3.15;;;9.50;66.00;;;;;;5017535;28;20408;-76
2021/11/08 12:59:59;;;;;;;15.50;3.10;;;9.50;66.20;;;;;;5017516;28;20037;-76
2021/11/08 13:02:37;;;;;;;9.07;2.80;;;9.50;65.90;;;;;;5034067;28;20466;-79
2021/11/08 13:05:06;;;;;;;10.35;3.22;;;9.50;65.80;;;;;;5017693;28;20029;-79
2021/11/08 13:07:44;;;;;;;12.80;3.65;;;9.60;65.90;;;;;;5017501;28;20409;-79
2021/11/08 13:10:25;;;;;;;13.73;2.97;;;9.40;66.20;;;;;;5014711;28;20032;-77
2021/11/08 13:12:52;;;;;;;12.85;3.88;;;9.50;66.50;;;;;;5017449;28;20025;-78
2021/11/08 13:15:27;;;;;;;14.40;3.85;;;9.40;67.20;;;;;;5017639;28;20029;-80
2021/11/08 13:18:04;;;;;;;15.25;3.85;;;9.40;67.30;;;;;;5035364;28;20034;-78
2021/11/08 13:20:36;;;;;;;9.93;3.25;;;9.30;66.90;;;;;;5017433;28;20076;-75
2021/11/08 13:23:17;;;;;;;11.52;3.17;;;9.30;67.10;;;;;;5016463;28;20025;-79
2021/11/08 13:25:46;;;;;;;19.23;4.30;;;9.40;66.90;;;;;;5021293;28;20131;-78
2021/11/08 13:28:17;;;;;;;14.35;4.13;;;9.50;66.40;;;;;;5023634;28;20025;-77
2021/11/08 13:30:51;;;;;;;13.80;3.40;;;9.70;66.20;;;;;;5037511;28;20033;-80
2021/11/08 13:33:26;;;;;;;15.02;3.13;;;12.00;62.80;;;;;;5035755;28;20022;-81
2021/11/08 13:35:52;;;;;;;10.98;3.10;;;15.80;48.10;;;;;;5017328;28;20029;-81
2021/11/08 13:38:38;;;;;;;11.50;3.03;;;19.20;38.90;;;;;;5017234;28;20486;-80
2021/11/08 13:41:06;;;;;;;8.68;2.88;;;23.00;31.60;;;;;;5017345;28;20449;-79
2021/11/08 13:43:41;;;;;;;6.55;2.50;;;24.70;26.00;;;;;;5033774;28;20029;-79
2021/11/08 13:46:18;;;;;;;9.88;3.03;;;25.60;21.50;;;;;;5017268;28;20055;-78
2021/11/08 13:48:50;;;;;;;8.15;2.63;;;26.80;19.80;;;;;;5016764;28;20029;-74
2021/11/08 13:51:33;;;;;;;9.98;2.83;;;27.00;19.20;;;;;;5016603;28;20112;-77
2021/11/08 13:54:07;;;;;;;10.32;2.83;;;25.20;19.30;;;;;;5033335;28;20030;-79
2021/11/08 13:56:42;;;;;;;8.40;2.65;;;23.20;21.60;;;;;;5016844;28;20022;-77
2021/11/08 13:59:14;;;;;;;11.88;3.20;;;20.60;26.10;;;;;;5016553;28;20037;-80
2021/11/08 14:01:45;;;;;;;8.48;2.38;;;18.90;30.50;;;;;;5016463;28;20489;-80
2021/11/08 14:04:11;;;;;;;8.55;2.90;;;17.40;33.90;;;;;;5016204;28;20036;-77
2021/11/08 14:06:42;;;;;;;9.80;2.83;;;16.20;37.10;;;;;;5033913;28;20150;-77
2021/11/08 14:09:11;;;;;;;9.30;2.65;;;15.10;39.80;;;;;;5016229;28;20097;-77
2021/11/08 14:11:41;;;;;;;11.77;2.90;;;14.40;42.00;;;;;;5034160;28;20060;-78
2021/11/08 14:14:07;;;;;;;8.75;2.67;;;13.90;43.30;;;;;;5016069;28;20083;-80
2021/11/08 14:16:34;;;;;;;8.88;2.67;;;13.50;44.50;;;;;;5032780;28;20025;-79
2021/11/08 14:18:59;;;;;;;10.23;2.55;;;13.40;45.50;;;;;;5015268;28;20124;-79
2021/11/08 14:21:26;;;;;;;10.07;2.55;;;13.70;45.40;;;;;;5015712;28;20080;-77
2021/11/08 14:24:20;;;;;;;6.78;2.30;;;14.00;44.20;;;;;;5016009;28;20092;-79
2021/11/08 14:26:50;;;;;;;10.38;3.10;;;14.10;43.50;;;;;;5029719;28;20502;-80
2021/11/08 14:29:31;;;;;;;8.18;2.65;;;14.10;43.20;;;;;;5015905;28;20448;-80
2021/11/08 14:32:00;;;;;;;10.50;2.63;;;14.20;42.80;;;;;;5015912;28;20025;-78
2021/11/08 14:34:31;;;;;;;9.90;2.38;;;14.30;42.40;;;;;;5016235;28;20037;-80
2021/11/08 14:36:57;;;;;;;10.38;2.83;;;14.90;41.60;;;;;;5025210;28;20029;-79
2021/11/08 14:39:26;;;;;;;7.82;2.25;;;15.60;39.80;;;;;;5033697;28;20105;-78
2021/11/08 14:41:52;;;;;;;8.23;2.72;;;16.30;38.60;;;;;;5034015;28;20025;-76
2021/11/08 14:44:17;;;;;;;10.27;3.22;;;17.00;37.00;;;;;;5033562;28;20022;-75
2021/11/08 14:46:46;;;;;;;7.95;2.45;;;16.70;36.40;;;;;;5016130;28;20040;-77
2021/11/08 14:49:16;;;;;;;7.93;2.30;;;15.90;37.30;;;;;;5000261;28;20101;-75